Time;durP1;ratioP1;P1;durP2;ratioP2;P2;SDS_P1;SDS_P2;PMS_P1;PMS_P2;Temp;Humidity;BMP_temperature;BMP_pressure;BME280_temperature;BME280_humidity;BME280_pressure;Samples;Min_cycle;Max_cycle;Signal;HPM_P1;HPM_P2
2022/12/26 00:01:31;;;;;;;35.88;16.67;;;;;;;;;;5068302;28;20200;-67
2022/12/26 00:03:57;;;;;;;34.50;17.25;;;;;;;;;;5068904;28;20135;-67
2022/12/26 00:06:25;;;;;;;46.08;21.13;;;;;;;;;;5069917;28;20069;-67
2022/12/26 00:08:51;;;;;;;35.97;18.30;;;;;;;;;;5065876;28;20036;-67
2022/12/26 00:11:17;;;;;;;46.88;20.40;;;;;;;;;;5078373;28;20402;-67
2022/12/26 00:13:43;;;;;;;39.20;18.27;;;;;;;;;;5071563;28;20126;-67
2022/12/26 00:16:11;;;;;;;34.50;18.08;;;;;;;;;;5089850;28;20127;-67
2022/12/26 00:18:37;;;;;;;35.33;17.05;;;;;;;;;;5088385;28;20102;-67
2022/12/26 00:21:03;;;;;;;37.28;16.83;;;;;;;;;;5088338;28;20051;-67
2022/12/26 00:23:31;;;;;;;37.20;16.65;;;;;;;;;;5089585;28;20093;-67
2022/12/26 00:26:01;;;;;;;32.58;16.52;;;;;;;;;;5081097;28;20399;-67
2022/12/26 00:28:27;;;;;;;38.35;16.63;;;;;;;;;;5069698;28;20403;-67
2022/12/26 00:30:53;;;;;;;29.55;15.32;;;;;;;;;;5067627;28;20033;-67
2022/12/26 00:33:19;;;;;;;36.92;15.50;;;;;;;;;;5067942;28;20127;-67
2022/12/26 00:35:45;;;;;;;33.58;15.57;;;;;;;;;;5068095;28;20746;-67
2022/12/26 00:38:11;;;;;;;30.92;16.55;;;;;;;;;;5067920;28;20092;-67
2022/12/26 00:40:42;;;;;;;41.33;16.75;;;;;;;;;;5067982;28;20051;-67
2022/12/26 00:43:08;;;;;;;38.70;15.38;;;;;;;;;;5069477;28;20130;-67
2022/12/26 00:45:34;;;;;;;36.25;16.88;;;;;;;;;;5067883;28;20044;-67
2022/12/26 00:48:00;;;;;;;28.95;15.07;;;;;;;;;;5068020;28;20056;-67
2022/12/26 00:50:26;;;;;;;30.27;14.85;;;;;;;;;;5067462;28;20080;-67
2022/12/26 00:52:52;;;;;;;29.98;14.82;;;;;;;;;;5068053;28;20048;-67
2022/12/26 00:55:18;;;;;;;35.75;15.85;;;;;;;;;;5067955;28;20036;-67
2022/12/26 00:57:44;;;;;;;28.65;15.30;;;;;;;;;;5067805;28;20505;-67
2022/12/26 01:00:10;;;;;;;31.08;14.10;;;;;;;;;;5068654;28;20124;-67
2022/12/26 01:02:36;;;;;;;32.05;14.88;;;;;;;;;;5068004;28;20498;-67
2022/12/26 01:05:03;;;;;;;29.65;13.73;;;;;;;;;;5069469;28;20040;-67
2022/12/26 01:07:29;;;;;;;26.80;13.20;;;;;;;;;;5067412;28;20041;-67
2022/12/26 01:09:55;;;;;;;28.45;12.43;;;;;;;;;;5062332;28;20121;-67
2022/12/26 01:12:20;;;;;;;29.83;13.07;;;;;;;;;;5088002;28;20127;-67
2022/12/26 01:14:46;;;;;;;28.60;12.65;;;;;;;;;;5087287;28;20044;-67
2022/12/26 01:17:12;;;;;;;26.90;11.90;;;;;;;;;;5087692;28;20051;-67
2022/12/26 01:19:38;;;;;;;26.55;12.43;;;;;;;;;;5087302;28;20595;-67
2022/12/26 01:22:04;;;;;;;30.40;12.98;;;;;;;;;;5087301;28;20131;-67
2022/12/26 01:24:30;;;;;;;28.92;12.60;;;;;;;;;;5088016;28;20048;-67
2022/12/26 01:26:56;;;;;;;34.38;13.77;;;;;;;;;;5070568;28;20052;-67
2022/12/26 01:29:22;;;;;;;51.00;16.23;;;;;;;;;;5067552;28;20111;-67
2022/12/26 01:31:48;;;;;;;36.63;16.02;;;;;;;;;;5069124;28;20036;-67
2022/12/26 01:34:14;;;;;;;39.85;15.50;;;;;;;;;;5067691;28;20569;-67
2022/12/26 01:36:40;;;;;;;41.35;15.20;;;;;;;;;;5068831;28;20105;-67
2022/12/26 01:39:06;;;;;;;41.15;15.73;;;;;;;;;;5067537;28;20059;-67
2022/12/26 01:41:32;;;;;;;45.03;16.80;;;;;;;;;;5067563;28;20043;-67
2022/12/26 01:43:59;;;;;;;41.20;15.48;;;;;;;;;;5067054;28;20040;-67
2022/12/26 01:46:28;;;;;;;40.88;16.02;;;;;;;;;;5067065;28;20047;-67
2022/12/26 01:48:55;;;;;;;43.25;16.75;;;;;;;;;;5067468;28;20047;-67
2022/12/26 01:51:23;;;;;;;52.42;17.23;;;;;;;;;;5067078;28;20130;-67
2022/12/26 01:53:51;;;;;;;46.80;16.90;;;;;;;;;;5068675;28;20063;-67
2022/12/26 01:56:30;;;;;;;47.95;16.48;;;;;;;;;;5067489;28;20041;-67
2022/12/26 01:59:17;;;;;;;41.65;16.95;;;;;;;;;;5067048;28;20443;-67
2022/12/26 02:01:44;;;;;;;42.72;16.10;;;;;;;;;;5083574;28;20048;-67
2022/12/26 02:06:57;;;;;;;40.35;15.82;;;;;;;;;;5069930;28;20040;-67
2022/12/26 02:09:23;;;;;;;39.33;16.35;;;;;;;;;;5065134;28;20033;-67
2022/12/26 02:11:51;;;;;;;32.10;15.27;;;;;;;;;;5087547;28;20043;-67
2022/12/26 02:14:17;;;;;;;49.58;16.67;;;;;;;;;;5089936;28;20121;-67
2022/12/26 02:16:45;;;;;;;36.35;15.38;;;;;;;;;;5090543;28;20044;-67
2022/12/26 02:19:19;;;;;;;36.03;15.60;;;;;;;;;;5090448;28;20102;-67
2022/12/26 02:22:08;;;;;;;35.28;15.18;;;;;;;;;;5073040;28;20135;-67
2022/12/26 02:24:49;;;;;;;35.70;15.90;;;;;;;;;;5072323;28;20087;-67
2022/12/26 02:27:18;;;;;;;32.65;16.15;;;;;;;;;;5070620;28;20047;-67
2022/12/26 02:30:02;;;;;;;36.42;17.15;;;;;;;;;;5069321;28;20040;-67
2022/12/26 02:32:44;;;;;;;34.33;17.38;;;;;;;;;;5070056;28;20479;-67
2022/12/26 02:35:28;;;;;;;34.38;17.15;;;;;;;;;;5053404;28;20032;-67
2022/12/26 02:38:13;;;;;;;36.63;17.77;;;;;;;;;;5069464;28;20093;-67
2022/12/26 02:40:58;;;;;;;35.45;17.63;;;;;;;;;;5070088;28;20044;-67
2022/12/26 02:43:44;;;;;;;35.65;19.20;;;;;;;;;;5069193;28;20047;-67
2022/12/26 02:49:17;;;;;;;44.45;20.80;;;;;;;;;;5069956;28;20048;-67
2022/12/26 03:14:59;;;;;;;51.40;24.08;;;;;;;;;;5048199;28;20053;-67
2022/12/26 03:17:25;;;;;;;56.80;24.30;;;;;;;;;;5049201;28;20043;-67
2022/12/26 03:19:59;;;;;;;52.42;22.77;;;;;;;;;;5048970;28;20447;-67
2022/12/26 03:22:32;;;;;;;50.50;23.13;;;;;;;;;;5048882;28;20052;-67
2022/12/26 03:27:44;;;;;;;56.30;24.27;;;;;;;;;;5068883;28;20094;-67
2022/12/26 03:32:56;;;;;;;53.83;23.88;;;;;;;;;;5068997;28;20818;-67
2022/12/26 03:35:23;;;;;;;57.42;26.38;;;;;;;;;;5068582;28;20044;-67
2022/12/26 03:37:50;;;;;;;55.45;26.98;;;;;;;;;;5068893;28;20052;-67
2022/12/26 04:44:06;;;;;;;45.00;23.95;;;;;;;;;;5067664;28;20052;-66
2022/12/26 04:46:33;;;;;;;43.17;22.95;;;;;;;;;;5068049;28;20045;-66
2022/12/26 04:51:44;;;;;;;39.80;21.05;;;;;;;;;;5067668;28;20044;-66
2022/12/26 04:54:10;;;;;;;39.35;20.63;;;;;;;;;;5068062;28;20048;-67
2022/12/26 04:56:36;;;;;;;42.33;21.40;;;;;;;;;;5067452;28;20141;-67
2022/12/26 04:59:02;;;;;;;44.20;22.85;;;;;;;;;;5067818;28;20040;-67
2022/12/26 05:09:44;;;;;;;36.20;20.75;;;;;;;;;;5061225;28;20044;-67
2022/12/26 05:12:10;;;;;;;35.95;21.42;;;;;;;;;;5087358;28;20032;-67
2022/12/26 05:14:37;;;;;;;39.90;21.58;;;;;;;;;;5087864;28;20050;-67
2022/12/26 05:30:52;;;;;;;35.40;20.40;;;;;;;;;;5070447;28;20115;-66
2022/12/26 05:36:03;;;;;;;34.58;20.15;;;;;;;;;;5069192;28;20076;-66
2022/12/26 05:38:29;;;;;;;33.15;19.75;;;;;;;;;;5054184;28;20495;-66
2022/12/26 05:40:55;;;;;;;34.80;20.00;;;;;;;;;;5072578;28;20582;-66
2022/12/26 05:43:21;;;;;;;30.13;18.00;;;;;;;;;;5072830;28;20044;-66
2022/12/26 05:45:47;;;;;;;35.03;19.67;;;;;;;;;;5072934;28;20044;-66
2022/12/26 05:48:13;;;;;;;34.70;20.45;;;;;;;;;;5072285;28;20037;-66
2022/12/26 05:50:39;;;;;;;36.63;20.20;;;;;;;;;;5073006;28;20037;-66
2022/12/26 05:53:05;;;;;;;34.40;20.65;;;;;;;;;;5072762;28;20072;-66
2022/12/26 05:55:32;;;;;;;35.45;20.42;;;;;;;;;;5073101;28;20076;-66
2022/12/26 05:57:59;;;;;;;32.85;20.63;;;;;;;;;;5072420;28;20052;-66
2022/12/26 06:00:25;;;;;;;39.78;21.08;;;;;;;;;;5072950;28;20070;-66
2022/12/26 06:02:51;;;;;;;35.30;20.27;;;;;;;;;;5072385;28;20371;-66
2022/12/26 06:05:17;;;;;;;37.33;21.33;;;;;;;;;;5072175;28;20097;-66
2022/12/26 06:07:43;;;;;;;35.08;20.65;;;;;;;;;;5073928;28;20123;-66
2022/12/26 06:10:09;;;;;;;32.35;19.60;;;;;;;;;;5069301;28;20040;-66
2022/12/26 06:12:35;;;;;;;36.13;20.27;;;;;;;;;;5092103;28;20505;-66
2022/12/26 06:15:01;;;;;;;36.67;21.02;;;;;;;;;;5093107;28;20185;-66
2022/12/26 06:17:28;;;;;;;30.17;18.13;;;;;;;;;;5093134;28;20040;-66
2022/12/26 06:19:53;;;;;;;27.67;17.05;;;;;;;;;;5075212;28;20056;-66
2022/12/26 06:22:20;;;;;;;33.33;18.05;;;;;;;;;;5093623;28;20081;-66
2022/12/26 06:24:46;;;;;;;32.30;19.60;;;;;;;;;;5094215;28;20490;-66
2022/12/26 06:27:12;;;;;;;29.83;18.27;;;;;;;;;;5072906;28;20047;-66
2022/12/26 06:29:38;;;;;;;29.42;18.17;;;;;;;;;;5072267;28;20127;-66
2022/12/26 06:32:04;;;;;;;30.15;17.13;;;;;;;;;;5071915;28;20063;-66
2022/12/26 06:34:30;;;;;;;27.05;16.83;;;;;;;;;;5073199;28;20041;-66
2022/12/26 06:36:56;;;;;;;25.88;16.60;;;;;;;;;;5071883;28;20051;-66
2022/12/26 06:39:23;;;;;;;27.23;15.63;;;;;;;;;;5072178;28;20045;-66
2022/12/26 06:41:49;;;;;;;30.23;17.90;;;;;;;;;;5071855;28;20041;-66
2022/12/26 06:44:15;;;;;;;29.73;16.50;;;;;;;;;;5073406;28;20498;-66
2022/12/26 06:46:41;;;;;;;29.80;16.38;;;;;;;;;;5071910;28;20044;-66
2022/12/26 06:49:07;;;;;;;30.55;16.50;;;;;;;;;;5070800;28;20485;-66
2022/12/26 06:51:34;;;;;;;28.50;16.65;;;;;;;;;;5071443;28;20037;-66
2022/12/26 06:54:04;;;;;;;26.95;15.70;;;;;;;;;;5071990;28;20132;-66
2022/12/26 06:56:30;;;;;;;28.00;15.50;;;;;;;;;;5072250;28;20645;-66
2022/12/26 06:58:58;;;;;;;23.17;14.93;;;;;;;;;;5067920;28;20656;-66
2022/12/26 07:01:24;;;;;;;24.88;14.60;;;;;;;;;;5051461;28;20053;-66
2022/12/26 07:03:51;;;;;;;23.10;14.85;;;;;;;;;;5051116;28;20045;-66
2022/12/26 07:06:17;;;;;;;27.75;14.73;;;;;;;;;;5052859;28;20090;-66
2022/12/26 07:08:43;;;;;;;23.48;13.95;;;;;;;;;;5052061;28;20459;-67
2022/12/26 07:11:16;;;;;;;23.45;14.13;;;;;;;;;;5085154;28;20485;-66
2022/12/26 07:13:43;;;;;;;25.10;13.52;;;;;;;;;;5091625;28;20047;-66
2022/12/26 07:16:09;;;;;;;23.92;13.50;;;;;;;;;;5092970;28;20035;-66
2022/12/26 07:18:35;;;;;;;23.23;13.98;;;;;;;;;;5090804;28;20059;-66
2022/12/26 07:21:05;;;;;;;22.75;14.25;;;;;;;;;;5090011;28;20056;-66
2022/12/26 07:23:32;;;;;;;25.40;13.88;;;;;;;;;;5090633;28;20043;-66
2022/12/26 07:25:58;;;;;;;22.92;14.32;;;;;;;;;;5080398;28;20055;-66
2022/12/26 07:28:24;;;;;;;23.88;14.68;;;;;;;;;;5069114;28;20127;-66
2022/12/26 07:30:50;;;;;;;22.60;14.23;;;;;;;;;;5069149;28;20197;-66
2022/12/26 07:33:16;;;;;;;24.27;14.60;;;;;;;;;;5068459;28;20056;-66
2022/12/26 07:35:43;;;;;;;23.48;15.07;;;;;;;;;;5070169;28;20043;-66
2022/12/26 07:38:09;;;;;;;26.13;15.45;;;;;;;;;;5069886;28;20048;-66
2022/12/26 07:40:35;;;;;;;28.40;14.82;;;;;;;;;;5068333;28;20178;-66
2022/12/26 07:43:01;;;;;;;24.90;14.75;;;;;;;;;;5068743;28;20048;-66
2022/12/26 07:45:28;;;;;;;23.45;14.77;;;;;;;;;;5069753;28;20051;-66
2022/12/26 07:47:54;;;;;;;23.73;15.30;;;;;;;;;;5069282;28;20044;-66
2022/12/26 07:50:20;;;;;;;25.35;16.15;;;;;;;;;;5070081;28;20041;-66
2022/12/26 07:52:46;;;;;;;24.13;15.35;;;;;;;;;;5068550;28;20041;-66
2022/12/26 07:55:12;;;;;;;25.13;16.35;;;;;;;;;;5067740;28;20094;-66
2022/12/26 07:57:38;;;;;;;24.38;15.85;;;;;;;;;;5069804;28;20063;-66
2022/12/26 08:00:05;;;;;;;22.17;15.00;;;;;;;;;;5069927;28;20054;-66
2022/12/26 08:02:31;;;;;;;24.42;15.10;;;;;;;;;;5068504;28;20238;-66
2022/12/26 08:04:57;;;;;;;21.30;13.65;;;;;;;;;;5068304;28;20075;-66
2022/12/26 08:07:23;;;;;;;22.92;14.80;;;;;;;;;;5068081;28;20094;-66
2022/12/26 08:09:49;;;;;;;22.25;13.73;;;;;;;;;;5061166;28;20045;-66
2022/12/26 08:12:15;;;;;;;20.17;13.35;;;;;;;;;;5089711;28;20042;-66
2022/12/26 08:14:41;;;;;;;27.88;13.48;;;;;;;;;;5087971;28;20040;-66
2022/12/26 08:17:07;;;;;;;19.75;12.38;;;;;;;;;;5089393;28;20100;-66
2022/12/26 08:19:33;;;;;;;19.45;12.80;;;;;;;;;;5088083;28;20051;-66
2022/12/26 08:21:59;;;;;;;24.48;12.30;;;;;;;;;;5087899;28;20055;-66
2022/12/26 08:24:25;;;;;;;22.15;11.82;;;;;;;;;;5089285;28;20375;-66
2022/12/26 08:26:51;;;;;;;19.00;11.73;;;;;;;;;;5073135;28;20097;-66
2022/12/26 08:29:17;;;;;;;16.88;11.02;;;;;;;;;;5069414;28;20032;-66
2022/12/26 08:31:43;;;;;;;16.88;10.27;;;;;;;;;;5067720;28;20498;-66
2022/12/26 08:34:09;;;;;;;17.88;9.60;;;;;;;;;;5067984;28;20044;-66
2022/12/26 08:36:35;;;;;;;20.98;10.32;;;;;;;;;;5069195;28;20408;-66
2022/12/26 08:39:01;;;;;;;16.60;9.95;;;;;;;;;;5068558;28;20091;-66
2022/12/26 08:41:27;;;;;;;16.85;9.50;;;;;;;;;;5068786;28;20121;-66
2022/12/26 08:43:53;;;;;;;17.63;9.38;;;;;;;;;;5069193;28;20115;-67
2022/12/26 08:46:20;;;;;;;15.55;8.85;;;;;;;;;;5067166;28;20652;-66
2022/12/26 08:48:46;;;;;;;18.40;8.88;;;;;;;;;;5067607;28;20434;-66
2022/12/26 08:51:14;;;;;;;14.27;8.02;;;;;;;;;;5067642;28;20122;-66
2022/12/26 08:53:40;;;;;;;16.35;7.75;;;;;;;;;;5067331;28;20040;-66
2022/12/26 08:56:08;;;;;;;11.77;6.47;;;;;;;;;;5067460;28;20068;-66
2022/12/26 08:58:34;;;;;;;11.52;6.88;;;;;;;;;;5069187;28;20051;-66
2022/12/26 09:01:07;;;;;;;15.30;6.55;;;;;;;;;;5068305;28;20055;-66
2022/12/26 09:03:33;;;;;;;12.65;6.18;;;;;;;;;;5067299;28;20401;-66
2022/12/26 09:05:59;;;;;;;15.30;6.55;;;;;;;;;;5067307;28;20044;-66
2022/12/26 09:08:25;;;;;;;11.75;6.32;;;;;;;;;;5067318;28;20502;-66
2022/12/26 09:10:51;;;;;;;9.65;6.28;;;;;;;;;;5071115;28;20075;-66
2022/12/26 09:13:19;;;;;;;11.70;6.40;;;;;;;;;;5090776;28;20048;-66
2022/12/26 09:15:45;;;;;;;15.20;6.50;;;;;;;;;;5092820;28;20150;-66
2022/12/26 09:18:11;;;;;;;15.50;6.68;;;;;;;;;;5074878;28;20054;-66
2022/12/26 09:20:37;;;;;;;14.85;7.07;;;;;;;;;;5091126;28;20056;-66
2022/12/26 09:23:03;;;;;;;13.40;6.68;;;;;;;;;;5091256;28;20062;-66
2022/12/26 09:25:29;;;;;;;17.35;8.23;;;;;;;;;;5086798;28;20562;-66
2022/12/26 09:27:55;;;;;;;17.77;7.75;;;;;;;;;;5071105;28;20483;-66
2022/12/26 09:30:22;;;;;;;15.45;7.38;;;;;;;;;;5070759;28;20041;-66
2022/12/26 09:32:48;;;;;;;13.50;7.85;;;;;;;;;;5071128;28;20040;-66
2022/12/26 09:35:14;;;;;;;18.17;8.75;;;;;;;;;;5071005;28;20048;-66
2022/12/26 09:37:40;;;;;;;13.65;7.57;;;;;;;;;;5071017;28;20335;-66
2022/12/26 09:40:10;;;;;;;10.32;7.30;;;;;;;;;;5071032;28;20348;-66
2022/12/26 09:42:55;;;;;;;12.85;5.80;;;;;;;;;;5070834;28;20080;-66
2022/12/26 09:45:27;;;;;;;8.70;5.38;;;;;;;;;;5070460;28;20086;-66
2022/12/26 09:47:53;;;;;;;10.43;5.43;;;;;;;;;;5070834;28;20079;-66
2022/12/26 09:50:27;;;;;;;10.68;5.60;;;;;;;;;;5071065;28;20076;-66
2022/12/26 09:52:53;;;;;;;10.85;5.70;;;;;;;;;;5070242;28;20040;-66
2022/12/26 09:55:34;;;;;;;8.45;4.47;;;;;;;;;;5072570;28;20503;-66
2022/12/26 09:58:03;;;;;;;9.80;4.50;;;;;;;;;;5070870;28;20102;-66
2022/12/26 10:00:33;;;;;;;9.82;3.90;;;;;;;;;;5053813;28;20056;-66
2022/12/26 10:02:59;;;;;;;10.20;4.65;;;;;;;;;;5070727;28;20356;-66
2022/12/26 10:05:33;;;;;;;8.35;3.25;;;;;;;;;;5072320;28;20043;-66
2022/12/26 10:08:02;;;;;;;18.25;2.72;;;;;;;;;;5070163;28;20044;-66
2022/12/26 10:10:58;;;;;;;10.48;2.40;;;;;;;;;;5069532;28;20124;-66
2022/12/26 10:13:44;;;;;;;15.80;2.90;;;;;;;;;;5077452;28;20048;-66
2022/12/26 10:16:30;;;;;;;18.60;2.60;;;;;;;;;;5090438;28;20443;-66
2022/12/26 10:18:56;;;;;;;18.27;2.33;;;;;;;;;;5090118;28;20058;-66
2022/12/26 10:21:22;;;;;;;16.92;2.78;;;;;;;;;;5091434;28;20040;-66
2022/12/26 10:23:51;;;;;;;13.93;1.92;;;;;;;;;;5091565;28;20111;-66
2022/12/26 10:26:19;;;;;;;15.55;2.35;;;;;;;;;;5079051;28;20402;-66
2022/12/26 10:29:02;;;;;;;9.68;2.00;;;;;;;;;;5070303;28;20076;-66
2022/12/26 10:31:31;;;;;;;10.70;1.85;;;;;;;;;;5069562;28;20398;-66
2022/12/26 10:34:03;;;;;;;7.65;2.20;;;;;;;;;;5069798;28;20119;-66
2022/12/26 10:36:35;;;;;;;8.90;1.60;;;;;;;;;;5071349;28;20044;-66
2022/12/26 10:39:02;;;;;;;11.23;1.63;;;;;;;;;;5070947;28;20505;-66
2022/12/26 10:41:41;;;;;;;16.65;1.90;;;;;;;;;;5069706;28;20749;-66
2022/12/26 10:44:10;;;;;;;11.43;1.35;;;;;;;;;;5069718;28;20115;-66
2022/12/26 10:46:46;;;;;;;13.05;1.88;;;;;;;;;;5069519;28;20131;-66
2022/12/26 10:49:13;;;;;;;13.43;1.70;;;;;;;;;;5071313;28;20040;-66
2022/12/26 10:51:39;;;;;;;10.70;1.48;;;;;;;;;;5070896;28;20111;-66
2022/12/26 10:54:12;;;;;;;7.47;1.17;;;;;;;;;;5071064;28;20792;-66
2022/12/26 10:56:39;;;;;;;10.55;1.33;;;;;;;;;;5077092;28;20044;-66
2022/12/26 10:59:05;;;;;;;6.65;1.10;;;;;;;;;;5089766;28;20093;-66
2022/12/26 11:01:33;;;;;;;11.60;1.60;;;;;;;;;;5089335;28;20411;-66
2022/12/26 11:04:01;;;;;;;12.95;2.05;;;;;;;;;;5091286;28;20132;-66
2022/12/26 11:06:28;;;;;;;14.15;1.60;;;;;;;;;;5090700;28;20433;-66
2022/12/26 11:08:54;;;;;;;9.82;1.70;;;;;;;;;;5088269;28;20115;-66
2022/12/26 11:11:24;;;;;;;12.05;1.50;;;;;;;;;;5085087;28;20044;-66
2022/12/26 11:13:53;;;;;;;14.10;1.90;;;;;;;;;;4173380;28;10000977;-66
2022/12/26 11:16:33;;;;;;;10.80;2.33;;;;;;;;;;5050615;28;20459;-66
2022/12/26 11:18:59;;;;;;;12.68;2.05;;;;;;;;;;5048836;28;20052;-66
2022/12/26 11:21:26;;;;;;;16.15;2.58;;;;;;;;;;5048172;28;20044;-66
2022/12/26 11:24:09;;;;;;;14.65;1.35;;;;;;;;;;5048870;28;20045;-66
2022/12/26 11:26:36;;;;;;;11.32;1.50;;;;;;;;;;5035537;28;20547;-66
2022/12/26 11:29:14;;;;;;;13.52;1.88;;;;;;;;;;5028542;28;20103;-66
2022/12/26 11:31:50;;;;;;;10.23;1.25;;;;;;;;;;5009433;28;20054;-66
2022/12/26 11:34:20;;;;;;;6.57;1.20;;;;;;;;;;5010545;28;20113;-66
2022/12/26 11:36:47;;;;;;;10.13;1.10;;;;;;;;;;5008402;28;20512;-66
2022/12/26 11:39:24;;;;;;;10.60;1.85;;;;;;;;;;5010531;28;20072;-66
2022/12/26 11:41:50;;;;;;;6.35;1.23;;;;;;;;;;5010097;28;20048;-66
2022/12/26 11:44:39;;;;;;;9.07;1.35;;;;;;;;;;5008600;28;20045;-66
2022/12/26 11:47:05;;;;;;;11.55;1.90;;;;;;;;;;5010249;28;20100;-66
2022/12/26 11:49:33;;;;;;;12.57;1.60;;;;;;;;;;5010045;28;20524;-66
2022/12/26 11:52:01;;;;;;;9.90;1.42;;;;;;;;;;5009408;28;20524;-66
2022/12/26 11:54:28;;;;;;;10.57;1.63;;;;;;;;;;5008515;28;20513;-66
2022/12/26 11:57:02;;;;;;;10.18;1.45;;;;;;;;;;5008581;28;20053;-66
2022/12/26 11:59:29;;;;;;;10.10;1.70;;;;;;;;;;5008323;28;20369;-66
2022/12/26 12:02:13;;;;;;;10.05;1.80;;;;;;;;;;5008471;28;20037;-66
2022/12/26 12:04:39;;;;;;;17.70;2.95;;;;;;;;;;5010110;28;20052;-66
2022/12/26 12:07:12;;;;;;;13.75;2.10;;;;;;;;;;5009613;28;20396;-66
2022/12/26 12:09:53;;;;;;;14.48;1.90;;;;;;;;;;5018655;28;20080;-67
2022/12/26 12:12:26;;;;;;;11.43;1.80;;;;;;;;;;5049664;28;20106;-67
2022/12/26 12:14:52;;;;;;;13.27;2.03;;;;;;;;;;5049125;28;20044;-67
2022/12/26 12:17:18;;;;;;;14.98;2.08;;;;;;;;;;5049412;28;20033;-67
2022/12/26 12:20:06;;;;;;;11.82;1.83;;;;;;;;;;5048993;28;20057;-67
2022/12/26 12:22:40;;;;;;;14.23;2.35;;;;;;;;;;5048589;28;20471;-67
2022/12/26 12:25:21;;;;;;;11.73;1.60;;;;;;;;;;5048060;28;20474;-67
2022/12/26 12:28:06;;;;;;;15.87;1.93;;;;;;;;;;5028913;28;20235;-67
2022/12/26 12:30:38;;;;;;;11.52;1.77;;;;;;;;;;5029132;28;20275;-67
2022/12/26 12:33:07;;;;;;;13.63;2.38;;;;;;;;;;5029130;28;20110;-67
2022/12/26 12:35:42;;;;;;;13.98;2.13;;;;;;;;;;5028549;28;20120;-67
2022/12/26 12:38:29;;;;;;;12.82;2.15;;;;;;;;;;5029160;28;20049;-67
2022/12/26 12:41:06;;;;;;;10.68;2.30;;;;;;;;;;5028952;28;20543;-67
2022/12/26 12:43:42;;;;;;;15.82;2.40;;;;;;;;;;5028459;28;20041;-67
2022/12/26 12:46:16;;;;;;;15.75;2.45;;;;;;;;;;5028747;28;20132;-67
2022/12/26 12:49:01;;;;;;;17.20;2.15;;;;;;;;;;5028290;28;20041;-67
2022/12/26 12:51:41;;;;;;;10.65;2.20;;;;;;;;;;5028321;28;20065;-67
2022/12/26 12:54:30;;;;;;;11.65;2.13;;;;;;;;;;5029096;28;20502;-67
2022/12/26 12:57:02;;;;;;;16.00;2.40;;;;;;;;;;5028351;28;20135;-67
2022/12/26 12:59:28;;;;;;;16.92;2.22;;;;;;;;;;5028673;28;20128;-67
2022/12/26 13:01:57;;;;;;;10.68;2.13;;;;;;;;;;5028422;28;20143;-67
2022/12/26 13:04:26;;;;;;;15.27;2.15;;;;;;;;;;5029017;28;20507;-67
2022/12/26 13:06:58;;;;;;;20.20;2.22;;;;;;;;;;5028138;28;20080;-67
2022/12/26 13:09:34;;;;;;;7.43;1.67;;;;;;;;;;5029129;28;20037;-67
2022/12/26 13:12:07;;;;;;;17.48;2.30;;;;;;;;;;5046936;28;20119;-67
2022/12/26 13:14:40;;;;;;;17.38;2.15;;;;;;;;;;5047307;28;20124;-67
2022/12/26 13:17:10;;;;;;;13.15;2.15;;;;;;;;;;5048693;28;20051;-67
2022/12/26 13:19:40;;;;;;;13.13;1.85;;;;;;;;;;5046964;28;20434;-67
2022/12/26 13:22:19;;;;;;;12.68;2.20;;;;;;;;;;5048076;28;20043;-67
2022/12/26 13:24:48;;;;;;;17.20;2.00;;;;;;;;;;5048749;28;20037;-67
2022/12/26 13:27:21;;;;;;;13.02;2.38;;;;;;;;;;5028897;28;20450;-67
2022/12/26 13:29:48;;;;;;;18.02;2.10;;;;;;;;;;5028773;28;20048;-67
2022/12/26 13:32:32;;;;;;;21.40;2.45;;;;;;;;;;5028532;28;20034;-67
2022/12/26 13:34:59;;;;;;;15.88;2.13;;;;;;;;;;5028599;28;20041;-67
2022/12/26 13:37:31;;;;;;;12.15;2.78;;;;;;;;;;5028423;28;20044;-67
2022/12/26 13:39:59;;;;;;;12.63;2.03;;;;;;;;;;5028645;28;20049;-67
2022/12/26 13:45:35;;;;;;;15.35;2.08;;;;;;;;;;5028503;28;20049;-67
2022/12/26 13:48:01;;;;;;;9.85;1.85;;;;;;;;;;5028392;28;20550;-67
2022/12/26 13:50:46;;;;;;;15.32;1.88;;;;;;;;;;5028215;28;20377;-67
2022/12/26 13:53:24;;;;;;;12.68;2.58;;;;;;;;;;5027914;28;20056;-67
2022/12/26 13:56:16;;;;;;;8.45;1.60;;;;;;;;;;5028271;28;20045;-67
2022/12/26 13:58:45;;;;;;;15.15;2.00;;;;;;;;;;5012751;28;20049;-67
2022/12/26 14:01:20;;;;;;;17.88;2.83;;;;;;;;;;5032037;28;20037;-67
2022/12/26 14:03:55;;;;;;;17.25;2.28;;;;;;;;;;5031956;28;20046;-67
2022/12/26 14:06:41;;;;;;;17.05;2.13;;;;;;;;;;5031759;28;20129;-67
2022/12/26 14:09:16;;;;;;;10.88;1.92;;;;;;;;;;5030445;28;20061;-67
2022/12/26 14:12:08;;;;;;;18.63;2.90;;;;;;;;;;5048776;28;20041;-67
2022/12/26 14:14:37;;;;;;;11.18;1.73;;;;;;;;;;5051590;28;20110;-67
2022/12/26 14:17:22;;;;;;;11.25;1.80;;;;;;;;;;5051768;28;20132;-67
2022/12/26 14:19:51;;;;;;;13.20;1.88;;;;;;;;;;5051218;28;20053;-67
2022/12/26 14:22:21;;;;;;;9.65;2.28;;;;;;;;;;5051349;28;20045;-67
2022/12/26 14:24:47;;;;;;;11.05;1.80;;;;;;;;;;5051378;28;20047;-67
2022/12/26 14:27:31;;;;;;;7.32;1.17;;;;;;;;;;5032538;28;20037;-67
2022/12/26 14:30:07;;;;;;;12.05;1.73;;;;;;;;;;5031448;28;20518;-67
2022/12/26 14:32:52;;;;;;;17.30;1.88;;;;;;;;;;5031391;28;20519;-67
2022/12/26 14:35:27;;;;;;;8.48;1.80;;;;;;;;;;5031202;28;20056;-67
2022/12/26 14:38:04;;;;;;;7.03;1.75;;;;;;;;;;5030559;28;20491;-67
2022/12/26 14:40:33;;;;;;;16.20;2.28;;;;;;;;;;5029781;28;20803;-67
2022/12/26 14:43:11;;;;;;;11.80;1.80;;;;;;;;;;5030865;28;20042;-67
2022/12/26 14:45:37;;;;;;;11.43;2.58;;;;;;;;;;5031440;28;20050;-67
2022/12/26 14:48:23;;;;;;;12.55;1.77;;;;;;;;;;5029780;28;20041;-67
2022/12/26 14:50:50;;;;;;;15.48;2.50;;;;;;;;;;5029425;28;20377;-67
2022/12/26 14:53:16;;;;;;;12.32;2.13;;;;;;;;;;5029991;28;20045;-67
2022/12/26 14:55:49;;;;;;;9.77;2.15;;;;;;;;;;5030903;28;20484;-67
2022/12/26 14:58:24;;;;;;;17.70;2.42;;;;;;;;;;5030793;28;20077;-67
2022/12/26 15:00:50;;;;;;;13.18;1.85;;;;;;;;;;5030893;28;20476;-67
2022/12/26 15:03:22;;;;;;;11.40;2.00;;;;;;;;;;5030572;28;20365;-67
2022/12/26 15:05:50;;;;;;;11.25;1.95;;;;;;;;;;5031063;28;20083;-67
2022/12/26 15:08:33;;;;;;;16.67;2.25;;;;;;;;;;5030651;28;20054;-67
2022/12/26 15:11:13;;;;;;;12.30;2.08;;;;;;;;;;5040411;28;20040;-67
2022/12/26 15:14:02;;;;;;;10.13;1.73;;;;;;;;;;5050555;28;20045;-67
2022/12/26 15:16:34;;;;;;;14.75;2.25;;;;;;;;;;5040157;28;20442;-67
2022/12/26 15:19:33;;;;;;;13.60;2.10;;;;;;;;;;5049730;28;20152;-67
2022/12/26 15:22:05;;;;;;;19.67;2.22;;;;;;;;;;5049971;28;20055;-67
2022/12/26 15:24:37;;;;;;;10.98;1.80;;;;;;;;;;5050242;28;20133;-67
2022/12/26 15:27:09;;;;;;;16.95;2.30;;;;;;;;;;5032668;28;20084;-67
2022/12/26 15:29:53;;;;;;;13.82;1.92;;;;;;;;;;5030208;28;20039;-67
2022/12/26 15:32:24;;;;;;;10.73;1.77;;;;;;;;;;5030159;28;20506;-67
2022/12/26 15:34:49;;;;;;;12.73;2.15;;;;;;;;;;5029941;28;20056;-67
2022/12/26 15:37:24;;;;;;;11.15;1.85;;;;;;;;;;5030340;28;20049;-67
2022/12/26 15:39:50;;;;;;;12.50;2.15;;;;;;;;;;5030445;28;20484;-67
2022/12/26 15:42:28;;;;;;;11.88;1.88;;;;;;;;;;5028214;28;20049;-67
2022/12/26 15:44:54;;;;;;;12.85;2.53;;;;;;;;;;5030518;28;20044;-67
2022/12/26 15:47:22;;;;;;;12.63;2.85;;;;;;;;;;5030217;28;20519;-67
2022/12/26 15:49:55;;;;;;;13.15;1.92;;;;;;;;;;5029667;28;20328;-67
2022/12/26 15:52:23;;;;;;;14.55;2.28;;;;;;;;;;5029489;28;20045;-67
2022/12/26 15:54:49;;;;;;;10.38;2.28;;;;;;;;;;5030028;28;20503;-67
2022/12/26 15:57:31;;;;;;;16.90;2.67;;;;;;;;;;5028101;28;20135;-67
2022/12/26 16:00:03;;;;;;;15.52;2.35;;;;;;;;;;5029906;28;20069;-67
2022/12/26 16:02:29;;;;;;;;;;;;;;;;;;5029771;28;20127;-67
2022/12/26 16:05:06;;;;;;;13.65;2.15;;;;;;;;;;5029873;28;20351;-67
2022/12/26 16:07:39;;;;;;;17.38;2.25;;;;;;;;;;5029304;28;20034;-67
2022/12/26 16:10:25;;;;;;;11.88;1.88;;;;;;;;;;5032992;28;20055;-67
2022/12/26 16:13:10;;;;;;;10.73;2.10;;;;;;;;;;5049059;28;20072;-67
2022/12/26 16:15:44;;;;;;;10.32;1.80;;;;;;;;;;5049146;28;20047;-67
2022/12/26 16:18:17;;;;;;;13.23;2.13;;;;;;;;;;5049129;28;20051;-67
2022/12/26 16:23:31;;;;;;;14.75;2.50;;;;;;;;;;5049045;28;20111;-67
2022/12/26 16:25:59;;;;;;;15.75;2.92;;;;;;;;;;5040848;28;20056;-67
2022/12/26 16:28:36;;;;;;;21.75;6.88;;;;;;;;;;5029211;28;20129;-67
2022/12/26 16:31:02;;;;;;;19.40;6.63;;;;;;;;;;5029477;28;20124;-67
2022/12/26 16:33:30;;;;;;;15.15;3.25;;;;;;;;;;5028599;28;20091;-67
2022/12/26 16:35:56;;;;;;;16.65;4.07;;;;;;;;;;5029282;28;20034;-67
2022/12/26 16:38:24;;;;;;;13.27;4.40;;;;;;;;;;5029112;28;20049;-67
2022/12/26 16:40:51;;;;;;;13.10;4.00;;;;;;;;;;5028972;28;20053;-67
2022/12/26 16:43:17;;;;;;;12.80;4.45;;;;;;;;;;5029136;28;20052;-67
2022/12/26 16:45:44;;;;;;;15.85;4.82;;;;;;;;;;5029295;28;20049;-67
2022/12/26 16:48:13;;;;;;;16.05;5.10;;;;;;;;;;5028441;28;20053;-67
2022/12/26 16:50:45;;;;;;;12.13;3.42;;;;;;;;;;5029071;28;20033;-67
2022/12/26 16:53:11;;;;;;;;;;;;;;;;;;5029353;28;20044;-67
2022/12/26 16:55:40;;;;;;;12.63;2.60;;;;;;;;;;5028954;28;19917;-67